SGEN/ENO METAR and TAF weather

Enter ICAO airport designator
Station Type Date Time Source
SGEN METAR 2022/06/27 09:00 UTC NOAA

SGEN 270900Z 05003KT 0000 FG BKN020 BKN060 16/16 Q1017


Station Type Date Time Source
SGEN Decoded METAR 2022/06/27 09:00 UTC NOAA

Encarnacion, Paraguay (SGEN) 27-19S 055-50W 91M
Jun 27, 2022 - 05:00 AM EDT / 2022.06.27 0900 UTC
Wind: from the NE (050 degrees) at 3 MPH (3 KT):0
Visibility: less than 1 mile:0
Sky conditions: mostly cloudy
Weather: fog
Temperature: 60 F (16 C)
Dew Point: 60 F (16 C)
Relative Humidity: 100%
Pressure (altimeter): 30.03 in. Hg (1017 hPa)
ob: SGEN 270900Z 05003KT 0000 FG BKN020 BKN060 16/16 Q1017
cycle: 9

Station Type Date Time Source
SGEN TAF 2022/06/27 06:00 UTC NOAA

TAF SGEN 270555Z 2706/2806 09002KT 0800 FG BKN010 TX24/2719Z TN14/2710Z PROB30 2707/2710 00000KT 0200 FG OVC006
BECMG 2712/2715 05009KT 9999 BKN010

Example: see airport list